Neva Lux — UGZF — position and weather

sailwx.info

Track history (hours):
 
Tides and Currents Weather Stations Pressure Air Temp Water Temp Dewpoint Dewpoint Depression Visibility Wind Speed Wind Dir Waves Ship Positions

Neva Lux

Last reported at 2015-Mar-26 13:14 UTC. Time now 2015-Mar-27 05:15 UTC.
Position N 59°53' E 030°13'.

Length 65 m; draft 3.5 m.

Type: Tanker. MMSI: 273426540.

Date/timePositionNaut miles runAvg speedWind from/ knotsBaromVisibWave heightAir tempDewpointWater temp
2015-Mar-26 13:14N 59°53' E 030°13'0 0.2
2015-Mar-26 12:33N 59°53' E 030°13'0 0.0
2015-Mar-26 01:09N 59°52' E 030°13'1 2.4
2015-Mar-26 00:33N 59°54' E 030°13'1 1.3
2015-Mar-25 23:33N 59°55' E 030°14'0 0.0
2015-Mar-25 22:33N 59°55' E 030°14'0 0.0
2015-Mar-25 21:28N 59°55' E 030°14'0 0.0
2015-Mar-25 20:33N 59°55' E 030°14'2 0.2
2015-Mar-25 09:27N 59°53' E 030°12'  
2015-Mar-22 11:05N 59°53' E 030°13'2 3.9
2015-Mar-22 10:34N 59°55' E 030°14'0 0.2
2015-Mar-22 09:34N 59°55' E 030°14'0 0.0
2015-Mar-22 08:33N 59°55' E 030°14'0 0.0
2015-Mar-22 07:34N 59°55' E 030°14'0 0.0
2015-Mar-22 06:33N 59°55' E 030°14'0 0.1
2015-Mar-22 02:30N 59°55' E 030°14'0 0.0
2015-Mar-22 01:19N 59°55' E 030°14'0 0.0
2015-Mar-22 00:16N 59°55' E 030°14'0 0.0
2015-Mar-21 22:12N 59°55' E 030°14'0 0.0
2015-Mar-21 21:29N 59°55' E 030°14'0 0.0
2015-Mar-21 20:20N 59°55' E 030°14'0 0.0
2015-Mar-21 19:31N 59°55' E 030°14'0 0.0
2015-Mar-21 18:20N 59°55' E 030°14'2 2.0
2015-Mar-21 17:33N 59°53' E 030°12'1 0.1
2015-Mar-21 09:24N 59°53' E 030°11'1 0.1
2015-Mar-20 22:33N 59°53' E 030°12'1 0.9
2015-Mar-20 21:32N 59°52' E 030°12'0 0.0
2015-Mar-20 20:32N 59°52' E 030°12'0 0.0
2015-Mar-20 19:33N 59°52' E 030°12'0 0.2
2015-Mar-20 18:27N 59°53' E 030°12'3 2.8
2015-Mar-20 17:34N 59°55' E 030°14'0 0.0
2015-Mar-20 16:34N 59°55' E 030°14'0 0.0
2015-Mar-20 15:34N 59°55' E 030°14'0 0.0
2015-Mar-20 14:33N 59°55' E 030°14'0 0.0
2015-Mar-20 13:33N 59°55' E 030°14'0 0.0
2015-Mar-20 12:34N 59°55' E 030°14'0 0.0
2015-Mar-20 11:33N 59°55' E 030°14'0 0.0
2015-Mar-20 10:33N 59°55' E 030°14'0 0.0
2015-Mar-20 09:33N 59°55' E 030°14'0 0.0
2015-Mar-20 08:34N 59°55' E 030°14'0 0.0
2015-Mar-20 07:34N 59°55' E 030°14'  
2015-Mar-17 21:17N 59°55' E 030°13'0 0.1
2015-Mar-17 17:30N 59°55' E 030°14'0 0.0
2015-Mar-16 15:03N 59°55' E 030°14'  
Track history (hours):
 
Tides and Currents Weather Stations Pressure Air Temp Water Temp Dewpoint Dewpoint Depression Visibility Wind Speed Wind Dir Waves Ship Positions

Neva Lux

Last reported at 2015-Mar-26 13:14 UTC. Time now 2015-Mar-27 05:15 UTC.
Position N 59°53' E 030°13'.

Length 65 m; draft 3.5 m.

Type: Tanker. MMSI: 273426540.

Date/timePositionNaut miles runAvg speedWind from/ knotsBaromVisibWave heightAir tempDewpointWater temp
2015-Mar-26 13:14N 59°53' E 030°13'0 0.2
2015-Mar-26 12:33N 59°53' E 030°13'0 0.0
2015-Mar-26 01:09N 59°52' E 030°13'1 2.4
2015-Mar-26 00:33N 59°54' E 030°13'1 1.3
2015-Mar-25 23:33N 59°55' E 030°14'0 0.0
2015-Mar-25 22:33N 59°55' E 030°14'0 0.0
2015-Mar-25 21:28N 59°55' E 030°14'0 0.0
2015-Mar-25 20:33N 59°55' E 030°14'2 0.2
2015-Mar-25 09:27N 59°53' E 030°12'  
2015-Mar-22 11:05N 59°53' E 030°13'2 3.9
2015-Mar-22 10:34N 59°55' E 030°14'0 0.2
2015-Mar-22 09:34N 59°55' E 030°14'0 0.0
2015-Mar-22 08:33N 59°55' E 030°14'0 0.0
2015-Mar-22 07:34N 59°55' E 030°14'0 0.0
2015-Mar-22 06:33N 59°55' E 030°14'0 0.1
2015-Mar-22 02:30N 59°55' E 030°14'0 0.0
2015-Mar-22 01:19N 59°55' E 030°14'0 0.0
2015-Mar-22 00:16N 59°55' E 030°14'0 0.0
2015-Mar-21 22:12N 59°55' E 030°14'0 0.0
2015-Mar-21 21:29N 59°55' E 030°14'0 0.0
2015-Mar-21 20:20N 59°55' E 030°14'0 0.0
2015-Mar-21 19:31N 59°55' E 030°14'0 0.0
2015-Mar-21 18:20N 59°55' E 030°14'2 2.0
2015-Mar-21 17:33N 59°53' E 030°12'1 0.1
2015-Mar-21 09:24N 59°53' E 030°11'1 0.1
2015-Mar-20 22:33N 59°53' E 030°12'1 0.9
2015-Mar-20 21:32N 59°52' E 030°12'0 0.0
2015-Mar-20 20:32N 59°52' E 030°12'0 0.0
2015-Mar-20 19:33N 59°52' E 030°12'0 0.2
2015-Mar-20 18:27N 59°53' E 030°12'3 2.8
2015-Mar-20 17:34N 59°55' E 030°14'0 0.0
2015-Mar-20 16:34N 59°55' E 030°14'0 0.0
2015-Mar-20 15:34N 59°55' E 030°14'0 0.0
2015-Mar-20 14:33N 59°55' E 030°14'0 0.0
2015-Mar-20 13:33N 59°55' E 030°14'0 0.0
2015-Mar-20 12:34N 59°55' E 030°14'0 0.0
2015-Mar-20 11:33N 59°55' E 030°14'0 0.0
2015-Mar-20 10:33N 59°55' E 030°14'0 0.0
2015-Mar-20 09:33N 59°55' E 030°14'0 0.0
2015-Mar-20 08:34N 59°55' E 030°14'0 0.0
2015-Mar-20 07:34N 59°55' E 030°14'  
2015-Mar-17 21:17N 59°55' E 030°13'0 0.1
2015-Mar-17 17:30N 59°55' E 030°14'0 0.0
2015-Mar-16 15:03N 59°55' E 030°14'  

Dump ship's entire track history